sensor_id;sensor_type;location;lat;lon;timestamp;P1;durP1;ratioP1;P2;durP2;ratioP2
18716;SDS011;9487;50.892;6.906;2023-04-03T00:01:50;4.53;;;2.33;;
18716;SDS011;9487;50.892;6.906;2023-04-03T00:04:16;5.87;;;2.50;;
18716;SDS011;9487;50.892;6.906;2023-04-03T00:06:43;3.97;;;2.40;;
18716;SDS011;9487;50.892;6.906;2023-04-03T00:09:10;3.93;;;2.60;;
18716;SDS011;9487;50.892;6.906;2023-04-03T00:11:37;3.10;;;2.53;;
18716;SDS011;9487;50.892;6.906;2023-04-03T00:14:04;4.10;;;2.37;;
18716;SDS011;9487;50.892;6.906;2023-04-03T00:16:32;5.47;;;2.70;;
18716;SDS011;9487;50.892;6.906;2023-04-03T00:18:58;3.10;;;2.60;;
18716;SDS011;9487;50.892;6.906;2023-04-03T00:21:25;3.50;;;2.33;;
18716;SDS011;9487;50.892;6.906;2023-04-03T00:23:52;4.23;;;2.40;;
18716;SDS011;9487;50.892;6.906;2023-04-03T00:26:19;5.03;;;2.60;;
18716;SDS011;9487;50.892;6.906;2023-04-03T00:28:46;3.47;;;2.67;;
18716;SDS011;9487;50.892;6.906;2023-04-03T00:31:14;3.67;;;2.50;;
18716;SDS011;9487;50.892;6.906;2023-04-03T00:33:42;2.93;;;2.60;;
18716;SDS011;9487;50.892;6.906;2023-04-03T00:36:09;4.33;;;2.77;;
18716;SDS011;9487;50.892;6.906;2023-04-03T00:38:38;4.00;;;2.97;;
18716;SDS011;9487;50.892;6.906;2023-04-03T00:41:05;4.87;;;2.70;;
18716;SDS011;9487;50.892;6.906;2023-04-03T00:43:32;3.50;;;2.70;;
18716;SDS011;9487;50.892;6.906;2023-04-03T00:45:59;5.00;;;2.83;;
18716;SDS011;9487;50.892;6.906;2023-04-03T00:48:27;4.67;;;2.87;;
18716;SDS011;9487;50.892;6.906;2023-04-03T00:50:58;5.33;;;2.87;;
18716;SDS011;9487;50.892;6.906;2023-04-03T00:53:26;4.07;;;2.80;;
18716;SDS011;9487;50.892;6.906;2023-04-03T00:55:57;3.77;;;3.17;;
18716;SDS011;9487;50.892;6.906;2023-04-03T00:58:26;5.63;;;3.00;;
18716;SDS011;9487;50.892;6.906;2023-04-03T01:00:57;4.43;;;2.83;;
18716;SDS011;9487;50.892;6.906;2023-04-03T01:03:27;5.63;;;2.90;;
18716;SDS011;9487;50.892;6.906;2023-04-03T01:05:53;4.43;;;2.97;;
18716;SDS011;9487;50.892;6.906;2023-04-03T01:08:22;3.90;;;3.07;;
18716;SDS011;9487;50.892;6.906;2023-04-03T01:10:49;5.57;;;2.90;;
18716;SDS011;9487;50.892;6.906;2023-04-03T01:13:20;3.60;;;2.60;;
18716;SDS011;9487;50.892;6.906;2023-04-03T01:15:48;3.50;;;2.77;;
18716;SDS011;9487;50.892;6.906;2023-04-03T01:18:15;3.37;;;2.40;;
18716;SDS011;9487;50.892;6.906;2023-04-03T01:21:05;3.23;;;2.90;;
18716;SDS011;9487;50.892;6.906;2023-04-03T01:27:02;5.40;;;2.87;;
18716;SDS011;9487;50.892;6.906;2023-04-03T01:29:32;5.80;;;2.43;;
18716;SDS011;9487;50.892;6.906;2023-04-03T01:32:01;3.87;;;2.60;;
18716;SDS011;9487;50.892;6.906;2023-04-03T01:34:28;3.10;;;2.70;;
18716;SDS011;9487;50.892;6.906;2023-04-03T01:36:56;4.13;;;2.87;;
18716;SDS011;9487;50.892;6.906;2023-04-03T01:39:23;2.87;;;2.30;;
18716;SDS011;9487;50.892;6.906;2023-04-03T01:41:50;2.50;;;2.30;;
18716;SDS011;9487;50.892;6.906;2023-04-03T01:44:16;3.57;;;2.27;;
18716;SDS011;9487;50.892;6.906;2023-04-03T01:46:43;2.83;;;2.20;;
18716;SDS011;9487;50.892;6.906;2023-04-03T01:49:12;5.07;;;2.27;;
18716;SDS011;9487;50.892;6.906;2023-04-03T01:51:39;3.27;;;2.43;;
18716;SDS011;9487;50.892;6.906;2023-04-03T01:54:06;3.30;;;2.13;;
18716;SDS011;9487;50.892;6.906;2023-04-03T01:56:33;2.77;;;2.33;;
18716;SDS011;9487;50.892;6.906;2023-04-03T01:59:00;3.33;;;2.57;;
18716;SDS011;9487;50.892;6.906;2023-04-03T02:01:26;3.10;;;2.27;;
18716;SDS011;9487;50.892;6.906;2023-04-03T02:03:53;3.43;;;2.37;;
18716;SDS011;9487;50.892;6.906;2023-04-03T02:06:21;2.93;;;2.47;;
18716;SDS011;9487;50.892;6.906;2023-04-03T02:08:48;4.70;;;2.60;;
18716;SDS011;9487;50.892;6.906;2023-04-03T02:11:15;4.37;;;2.50;;
18716;SDS011;9487;50.892;6.906;2023-04-03T02:13:41;3.00;;;2.27;;
18716;SDS011;9487;50.892;6.906;2023-04-03T02:16:08;3.93;;;2.90;;
18716;SDS011;9487;50.892;6.906;2023-04-03T02:18:37;4.53;;;2.60;;
18716;SDS011;9487;50.892;6.906;2023-04-03T02:21:04;4.03;;;2.63;;
18716;SDS011;9487;50.892;6.906;2023-04-03T02:23:33;3.57;;;2.40;;
18716;SDS011;9487;50.892;6.906;2023-04-03T02:26:04;3.27;;;2.60;;
18716;SDS011;9487;50.892;6.906;2023-04-03T02:28:32;3.90;;;2.73;;
18716;SDS011;9487;50.892;6.906;2023-04-03T02:31:00;3.53;;;2.60;;
18716;SDS011;9487;50.892;6.906;2023-04-03T02:33:27;3.63;;;2.23;;
18716;SDS011;9487;50.892;6.906;2023-04-03T02:35:54;3.83;;;2.90;;
18716;SDS011;9487;50.892;6.906;2023-04-03T02:38:21;3.13;;;2.80;;
18716;SDS011;9487;50.892;6.906;2023-04-03T02:40:49;4.17;;;3.60;;
18716;SDS011;9487;50.892;6.906;2023-04-03T02:43:17;4.70;;;4.27;;
18716;SDS011;9487;50.892;6.906;2023-04-03T02:45:44;4.87;;;3.97;;
18716;SDS011;9487;50.892;6.906;2023-04-03T02:48:11;4.87;;;4.07;;
18716;SDS011;9487;50.892;6.906;2023-04-03T02:50:39;5.57;;;4.87;;
18716;SDS011;9487;50.892;6.906;2023-04-03T02:53:06;5.77;;;5.17;;
18716;SDS011;9487;50.892;6.906;2023-04-03T02:55:33;8.67;;;5.07;;
18716;SDS011;9487;50.892;6.906;2023-04-03T02:58:01;6.97;;;5.67;;
18716;SDS011;9487;50.892;6.906;2023-04-03T03:00:28;6.43;;;5.20;;
18716;SDS011;9487;50.892;6.906;2023-04-03T03:02:55;5.77;;;5.17;;
18716;SDS011;9487;50.892;6.906;2023-04-03T03:05:22;6.13;;;5.27;;
18716;SDS011;9487;50.892;6.906;2023-04-03T03:07:49;6.97;;;6.00;;
18716;SDS011;9487;50.892;6.906;2023-04-03T03:10:16;5.97;;;5.30;;
18716;SDS011;9487;50.892;6.906;2023-04-03T03:12:43;7.23;;;5.93;;
18716;SDS011;9487;50.892;6.906;2023-04-03T03:15:11;8.37;;;6.40;;
18716;SDS011;9487;50.892;6.906;2023-04-03T03:17:38;7.23;;;6.17;;
18716;SDS011;9487;50.892;6.906;2023-04-03T03:20:05;6.97;;;6.20;;
18716;SDS011;9487;50.892;6.906;2023-04-03T03:22:34;7.43;;;6.20;;
18716;SDS011;9487;50.892;6.906;2023-04-03T03:25:01;9.57;;;6.80;;
18716;SDS011;9487;50.892;6.906;2023-04-03T03:27:28;6.33;;;5.73;;
18716;SDS011;9487;50.892;6.906;2023-04-03T03:29:55;6.33;;;5.53;;
18716;SDS011;9487;50.892;6.906;2023-04-03T03:32:23;6.63;;;5.67;;
18716;SDS011;9487;50.892;6.906;2023-04-03T03:34:50;8.50;;;5.87;;
18716;SDS011;9487;50.892;6.906;2023-04-03T03:37:17;6.73;;;6.07;;
18716;SDS011;9487;50.892;6.906;2023-04-03T03:39:43;7.27;;;5.83;;
18716;SDS011;9487;50.892;6.906;2023-04-03T03:42:10;6.50;;;5.87;;
18716;SDS011;9487;50.892;6.906;2023-04-03T03:44:37;5.97;;;5.47;;
18716;SDS011;9487;50.892;6.906;2023-04-03T03:47:04;8.17;;;5.17;;
18716;SDS011;9487;50.892;6.906;2023-04-03T03:49:32;6.27;;;5.00;;
18716;SDS011;9487;50.892;6.906;2023-04-03T03:52:00;6.03;;;4.67;;
18716;SDS011;9487;50.892;6.906;2023-04-03T03:54:26;5.20;;;4.70;;
18716;SDS011;9487;50.892;6.906;2023-04-03T03:56:53;6.40;;;4.53;;
18716;SDS011;9487;50.892;6.906;2023-04-03T03:59:20;6.23;;;4.30;;
18716;SDS011;9487;50.892;6.906;2023-04-03T04:01:47;6.17;;;4.07;;
18716;SDS011;9487;50.892;6.906;2023-04-03T04:04:14;6.47;;;5.87;;
18716;SDS011;9487;50.892;6.906;2023-04-03T04:06:42;5.80;;;4.97;;
18716;SDS011;9487;50.892;6.906;2023-04-03T04:09:09;5.13;;;3.80;;
18716;SDS011;9487;50.892;6.906;2023-04-03T04:11:35;6.67;;;4.40;;
18716;SDS011;9487;50.892;6.906;2023-04-03T04:14:04;5.30;;;4.80;;
18716;SDS011;9487;50.892;6.906;2023-04-03T04:16:31;8.70;;;4.17;;
18716;SDS011;9487;50.892;6.906;2023-04-03T04:18:58;4.43;;;3.83;;
18716;SDS011;9487;50.892;6.906;2023-04-03T04:21:25;3.57;;;3.20;;
18716;SDS011;9487;50.892;6.906;2023-04-03T04:23:53;5.03;;;4.03;;
18716;SDS011;9487;50.892;6.906;2023-04-03T04:26:19;5.53;;;3.80;;
18716;SDS011;9487;50.892;6.906;2023-04-03T04:28:46;4.33;;;3.47;;
18716;SDS011;9487;50.892;6.906;2023-04-03T04:31:13;6.20;;;4.10;;
18716;SDS011;9487;50.892;6.906;2023-04-03T04:33:40;5.57;;;4.20;;
18716;SDS011;9487;50.892;6.906;2023-04-03T04:36:07;5.60;;;3.30;;
18716;SDS011;9487;50.892;6.906;2023-04-03T04:38:33;5.90;;;4.30;;
18716;SDS011;9487;50.892;6.906;2023-04-03T04:41:02;6.10;;;4.47;;
18716;SDS011;9487;50.892;6.906;2023-04-03T04:43:28;5.30;;;4.80;;
18716;SDS011;9487;50.892;6.906;2023-04-03T04:46:05;6.73;;;4.90;;
18716;SDS011;9487;50.892;6.906;2023-04-03T04:48:34;6.27;;;4.90;;
18716;SDS011;9487;50.892;6.906;2023-04-03T04:51:02;7.50;;;6.23;;
18716;SDS011;9487;50.892;6.906;2023-04-03T04:53:29;6.00;;;5.50;;
18716;SDS011;9487;50.892;6.906;2023-04-03T04:55:56;5.37;;;4.70;;
18716;SDS011;9487;50.892;6.906;2023-04-03T04:58:24;7.77;;;5.23;;
18716;SDS011;9487;50.892;6.906;2023-04-03T05:00:57;7.00;;;5.13;;
18716;SDS011;9487;50.892;6.906;2023-04-03T05:03:25;5.80;;;5.03;;
18716;SDS011;9487;50.892;6.906;2023-04-03T05:05:52;5.87;;;5.27;;
18716;SDS011;9487;50.892;6.906;2023-04-03T05:08:18;6.07;;;4.77;;
18716;SDS011;9487;50.892;6.906;2023-04-03T05:10:45;7.33;;;5.30;;
18716;SDS011;9487;50.892;6.906;2023-04-03T05:13:13;6.20;;;5.33;;
18716;SDS011;9487;50.892;6.906;2023-04-03T05:15:41;7.30;;;5.33;;
18716;SDS011;9487;50.892;6.906;2023-04-03T05:18:08;5.80;;;5.20;;
18716;SDS011;9487;50.892;6.906;2023-04-03T05:20:35;8.97;;;6.03;;
18716;SDS011;9487;50.892;6.906;2023-04-03T05:23:03;6.87;;;6.17;;
18716;SDS011;9487;50.892;6.906;2023-04-03T05:25:29;10.47;;;6.20;;
18716;SDS011;9487;50.892;6.906;2023-04-03T05:27:56;6.57;;;5.73;;
18716;SDS011;9487;50.892;6.906;2023-04-03T05:30:23;6.93;;;6.00;;
18716;SDS011;9487;50.892;6.906;2023-04-03T05:32:52;6.80;;;6.00;;
18716;SDS011;9487;50.892;6.906;2023-04-03T05:35:18;7.30;;;5.73;;
18716;SDS011;9487;50.892;6.906;2023-04-03T05:37:45;6.77;;;5.10;;
18716;SDS011;9487;50.892;6.906;2023-04-03T05:40:12;7.60;;;5.63;;
18716;SDS011;9487;50.892;6.906;2023-04-03T05:42:39;6.47;;;4.93;;
18716;SDS011;9487;50.892;6.906;2023-04-03T05:45:06;5.57;;;5.00;;
18716;SDS011;9487;50.892;6.906;2023-04-03T05:47:35;6.03;;;4.07;;
18716;SDS011;9487;50.892;6.906;2023-04-03T05:50:04;8.03;;;3.67;;
18716;SDS011;9487;50.892;6.906;2023-04-03T05:52:31;5.00;;;3.53;;
18716;SDS011;9487;50.892;6.906;2023-04-03T05:55:01;5.43;;;3.00;;
18716;SDS011;9487;50.892;6.906;2023-04-03T05:57:28;8.10;;;3.20;;
18716;SDS011;9487;50.892;6.906;2023-04-03T05:59:55;5.13;;;2.93;;
18716;SDS011;9487;50.892;6.906;2023-04-03T06:02:23;5.50;;;2.90;;
18716;SDS011;9487;50.892;6.906;2023-04-03T06:04:50;4.00;;;2.73;;
18716;SDS011;9487;50.892;6.906;2023-04-03T06:07:19;3.77;;;3.00;;
18716;SDS011;9487;50.892;6.906;2023-04-03T06:09:47;3.93;;;2.30;;
18716;SDS011;9487;50.892;6.906;2023-04-03T06:12:15;4.20;;;2.70;;
18716;SDS011;9487;50.892;6.906;2023-04-03T06:14:42;5.10;;;2.43;;
18716;SDS011;9487;50.892;6.906;2023-04-03T06:17:09;5.30;;;2.60;;
18716;SDS011;9487;50.892;6.906;2023-04-03T06:19:37;4.23;;;2.37;;
18716;SDS011;9487;50.892;6.906;2023-04-03T06:22:04;4.70;;;2.43;;
18716;SDS011;9487;50.892;6.906;2023-04-03T06:24:32;4.30;;;2.83;;
18716;SDS011;9487;50.892;6.906;2023-04-03T06:26:59;7.03;;;2.53;;
18716;SDS011;9487;50.892;6.906;2023-04-03T06:29:26;7.27;;;2.43;;
18716;SDS011;9487;50.892;6.906;2023-04-03T06:31:52;4.67;;;2.63;;
18716;SDS011;9487;50.892;6.906;2023-04-03T06:34:19;3.50;;;2.53;;
18716;SDS011;9487;50.892;6.906;2023-04-03T06:36:47;4.33;;;2.20;;
18716;SDS011;9487;50.892;6.906;2023-04-03T06:39:16;3.90;;;2.20;;
18716;SDS011;9487;50.892;6.906;2023-04-03T06:41:46;4.83;;;2.53;;
18716;SDS011;9487;50.892;6.906;2023-04-03T06:44:13;6.37;;;2.30;;
18716;SDS011;9487;50.892;6.906;2023-04-03T06:46:41;4.33;;;2.63;;
18716;SDS011;9487;50.892;6.906;2023-04-03T06:49:10;3.77;;;2.27;;
18716;SDS011;9487;50.892;6.906;2023-04-03T06:51:37;6.70;;;2.90;;
18716;SDS011;9487;50.892;6.906;2023-04-03T06:54:04;3.80;;;2.10;;
18716;SDS011;9487;50.892;6.906;2023-04-03T06:56:33;4.00;;;2.07;;
18716;SDS011;9487;50.892;6.906;2023-04-03T06:59:01;6.53;;;2.10;;
18716;SDS011;9487;50.892;6.906;2023-04-03T07:01:29;4.30;;;1.90;;
18716;SDS011;9487;50.892;6.906;2023-04-03T07:03:57;3.37;;;1.80;;
18716;SDS011;9487;50.892;6.906;2023-04-03T07:06:24;5.17;;;2.07;;
18716;SDS011;9487;50.892;6.906;2023-04-03T07:08:52;5.07;;;2.17;;
18716;SDS011;9487;50.892;6.906;2023-04-03T07:11:19;4.13;;;1.90;;
18716;SDS011;9487;50.892;6.906;2023-04-03T07:13:47;3.90;;;1.77;;
18716;SDS011;9487;50.892;6.906;2023-04-03T07:16:15;3.33;;;2.40;;
18716;SDS011;9487;50.892;6.906;2023-04-03T07:18:42;4.10;;;1.83;;
18716;SDS011;9487;50.892;6.906;2023-04-03T07:21:09;3.30;;;1.43;;
18716;SDS011;9487;50.892;6.906;2023-04-03T07:23:36;3.77;;;1.90;;
18716;SDS011;9487;50.892;6.906;2023-04-03T07:26:03;3.27;;;1.60;;
18716;SDS011;9487;50.892;6.906;2023-04-03T07:28:30;4.10;;;2.17;;
18716;SDS011;9487;50.892;6.906;2023-04-03T07:30:59;4.60;;;2.07;;
18716;SDS011;9487;50.892;6.906;2023-04-03T07:33:28;3.10;;;1.60;;
18716;SDS011;9487;50.892;6.906;2023-04-03T07:35:56;3.43;;;1.93;;
18716;SDS011;9487;50.892;6.906;2023-04-03T07:38:23;2.97;;;2.03;;
18716;SDS011;9487;50.892;6.906;2023-04-03T07:40:50;4.70;;;1.90;;
18716;SDS011;9487;50.892;6.906;2023-04-03T07:43:18;4.70;;;2.03;;
18716;SDS011;9487;50.892;6.906;2023-04-03T07:45:47;3.07;;;1.60;;
18716;SDS011;9487;50.892;6.906;2023-04-03T07:48:15;3.97;;;1.60;;
18716;SDS011;9487;50.892;6.906;2023-04-03T07:50:44;3.20;;;1.83;;
18716;SDS011;9487;50.892;6.906;2023-04-03T07:53:11;2.80;;;1.20;;
18716;SDS011;9487;50.892;6.906;2023-04-03T07:55:38;3.77;;;1.67;;
18716;SDS011;9487;50.892;6.906;2023-04-03T07:58:08;3.40;;;1.77;;
18716;SDS011;9487;50.892;6.906;2023-04-03T08:00:35;5.87;;;1.80;;
18716;SDS011;9487;50.892;6.906;2023-04-03T08:03:02;6.13;;;1.73;;
18716;SDS011;9487;50.892;6.906;2023-04-03T08:05:30;4.13;;;1.50;;
18716;SDS011;9487;50.892;6.906;2023-04-03T08:07:58;2.73;;;1.43;;
18716;SDS011;9487;50.892;6.906;2023-04-03T08:10:25;3.60;;;1.80;;
18716;SDS011;9487;50.892;6.906;2023-04-03T08:12:52;2.07;;;1.40;;
18716;SDS011;9487;50.892;6.906;2023-04-03T08:15:18;6.53;;;2.37;;
18716;SDS011;9487;50.892;6.906;2023-04-03T08:17:45;3.53;;;1.60;;
18716;SDS011;9487;50.892;6.906;2023-04-03T08:20:12;2.93;;;1.60;;
18716;SDS011;9487;50.892;6.906;2023-04-03T08:22:39;4.63;;;1.50;;
18716;SDS011;9487;50.892;6.906;2023-04-03T08:25:08;2.47;;;1.57;;
18716;SDS011;9487;50.892;6.906;2023-04-03T08:27:35;3.27;;;1.83;;
18716;SDS011;9487;50.892;6.906;2023-04-03T08:30:02;3.33;;;1.70;;
18716;SDS011;9487;50.892;6.906;2023-04-03T08:32:30;2.73;;;1.47;;
18716;SDS011;9487;50.892;6.906;2023-04-03T08:34:56;5.00;;;1.57;;
18716;SDS011;9487;50.892;6.906;2023-04-03T08:37:23;3.03;;;1.60;;
18716;SDS011;9487;50.892;6.906;2023-04-03T08:39:50;4.67;;;1.90;;
18716;SDS011;9487;50.892;6.906;2023-04-03T08:42:23;4.30;;;1.97;;
18716;SDS011;9487;50.892;6.906;2023-04-03T08:45:01;4.27;;;1.80;;
18716;SDS011;9487;50.892;6.906;2023-04-03T08:47:36;4.20;;;1.43;;
18716;SDS011;9487;50.892;6.906;2023-04-03T08:50:05;4.67;;;1.70;;
18716;SDS011;9487;50.892;6.906;2023-04-03T08:52:34;3.03;;;1.50;;
18716;SDS011;9487;50.892;6.906;2023-04-03T08:55:05;4.97;;;1.77;;
18716;SDS011;9487;50.892;6.906;2023-04-03T08:57:40;3.40;;;1.87;;
18716;SDS011;9487;50.892;6.906;2023-04-03T09:00:15;4.37;;;1.50;;
18716;SDS011;9487;50.892;6.906;2023-04-03T09:02:45;1.90;;;1.30;;
18716;SDS011;9487;50.892;6.906;2023-04-03T09:05:14;3.00;;;1.30;;
18716;SDS011;9487;50.892;6.906;2023-04-03T09:07:44;2.80;;;1.20;;
18716;SDS011;9487;50.892;6.906;2023-04-03T09:10:13;4.37;;;1.60;;
18716;SDS011;9487;50.892;6.906;2023-04-03T09:12:44;2.60;;;1.50;;
18716;SDS011;9487;50.892;6.906;2023-04-03T09:15:25;4.07;;;1.77;;
18716;SDS011;9487;50.892;6.906;2023-04-03T09:17:55;12.27;;;4.63;;
18716;SDS011;9487;50.892;6.906;2023-04-03T09:20:30;3.50;;;1.50;;
18716;SDS011;9487;50.892;6.906;2023-04-03T09:23:10;7.77;;;2.33;;
18716;SDS011;9487;50.892;6.906;2023-04-03T09:25:44;2.80;;;1.40;;
18716;SDS011;9487;50.892;6.906;2023-04-03T09:28:13;4.47;;;1.43;;
18716;SDS011;9487;50.892;6.906;2023-04-03T09:30:40;2.30;;;1.30;;
18716;SDS011;9487;50.892;6.906;2023-04-03T09:33:07;2.10;;;1.27;;
18716;SDS011;9487;50.892;6.906;2023-04-03T09:35:36;3.97;;;1.37;;
18716;SDS011;9487;50.892;6.906;2023-04-03T09:38:14;2.00;;;1.40;;
18716;SDS011;9487;50.892;6.906;2023-04-03T09:40:44;4.50;;;1.53;;
18716;SDS011;9487;50.892;6.906;2023-04-03T09:43:24;4.00;;;1.37;;
18716;SDS011;9487;50.892;6.906;2023-04-03T09:45:53;3.23;;;1.40;;
18716;SDS011;9487;50.892;6.906;2023-04-03T09:48:21;3.97;;;1.60;;
18716;SDS011;9487;50.892;6.906;2023-04-03T09:50:54;2.13;;;1.30;;
18716;SDS011;9487;50.892;6.906;2023-04-03T09:53:26;2.90;;;1.40;;
18716;SDS011;9487;50.892;6.906;2023-04-03T09:56:03;2.70;;;1.97;;
18716;SDS011;9487;50.892;6.906;2023-04-03T09:58:47;3.03;;;1.40;;
18716;SDS011;9487;50.892;6.906;2023-04-03T10:01:23;2.57;;;1.60;;
18716;SDS011;9487;50.892;6.906;2023-04-03T10:04:08;3.37;;;1.40;;
18716;SDS011;9487;50.892;6.906;2023-04-03T10:06:37;3.00;;;1.43;;
18716;SDS011;9487;50.892;6.906;2023-04-03T10:09:15;2.80;;;1.70;;
18716;SDS011;9487;50.892;6.906;2023-04-03T10:11:58;3.40;;;1.23;;
18716;SDS011;9487;50.892;6.906;2023-04-03T10:14:28;3.10;;;1.30;;
18716;SDS011;9487;50.892;6.906;2023-04-03T10:16:58;1.87;;;1.00;;
18716;SDS011;9487;50.892;6.906;2023-04-03T10:19:32;3.10;;;1.40;;
18716;SDS011;9487;50.892;6.906;2023-04-03T10:22:09;3.10;;;1.17;;
18716;SDS011;9487;50.892;6.906;2023-04-03T10:24:47;2.13;;;1.20;;
18716;SDS011;9487;50.892;6.906;2023-04-03T10:27:20;3.00;;;1.30;;
18716;SDS011;9487;50.892;6.906;2023-04-03T10:29:55;3.70;;;1.20;;
18716;SDS011;9487;50.892;6.906;2023-04-03T10:32:40;1.40;;;0.90;;
18716;SDS011;9487;50.892;6.906;2023-04-03T10:35:16;2.70;;;1.33;;
18716;SDS011;9487;50.892;6.906;2023-04-03T10:37:50;2.30;;;0.93;;
18716;SDS011;9487;50.892;6.906;2023-04-03T10:40:28;2.67;;;1.27;;
18716;SDS011;9487;50.892;6.906;2023-04-03T10:43:02;1.40;;;1.20;;
18716;SDS011;9487;50.892;6.906;2023-04-03T10:45:43;5.13;;;1.57;;
18716;SDS011;9487;50.892;6.906;2023-04-03T10:48:17;3.67;;;1.20;;
18716;SDS011;9487;50.892;6.906;2023-04-03T10:50:53;2.77;;;1.63;;
18716;SDS011;9487;50.892;6.906;2023-04-03T10:53:28;2.93;;;1.30;;
18716;SDS011;9487;50.892;6.906;2023-04-03T10:56:03;1.97;;;1.07;;
18716;SDS011;9487;50.892;6.906;2023-04-03T10:58:38;5.37;;;1.40;;
18716;SDS011;9487;50.892;6.906;2023-04-03T11:01:11;2.77;;;1.20;;
18716;SDS011;9487;50.892;6.906;2023-04-03T11:03:43;2.40;;;1.10;;
18716;SDS011;9487;50.892;6.906;2023-04-03T11:06:13;2.07;;;1.00;;
18716;SDS011;9487;50.892;6.906;2023-04-03T11:08:44;3.03;;;0.83;;
18716;SDS011;9487;50.892;6.906;2023-04-03T11:11:16;2.87;;;1.20;;
18716;SDS011;9487;50.892;6.906;2023-04-03T11:13:48;1.40;;;0.90;;
18716;SDS011;9487;50.892;6.906;2023-04-03T11:16:23;1.57;;;1.03;;
18716;SDS011;9487;50.892;6.906;2023-04-03T11:18:52;2.17;;;0.97;;
18716;SDS011;9487;50.892;6.906;2023-04-03T11:21:24;2.23;;;1.03;;
18716;SDS011;9487;50.892;6.906;2023-04-03T11:23:56;2.63;;;1.10;;
18716;SDS011;9487;50.892;6.906;2023-04-03T11:26:24;1.17;;;0.93;;
18716;SDS011;9487;50.892;6.906;2023-04-03T11:28:58;1.83;;;1.10;;
18716;SDS011;9487;50.892;6.906;2023-04-03T11:31:32;1.77;;;0.90;;
18716;SDS011;9487;50.892;6.906;2023-04-03T11:34:21;2.90;;;1.30;;
18716;SDS011;9487;50.892;6.906;2023-04-03T11:36:59;2.77;;;1.00;;
18716;SDS011;9487;50.892;6.906;2023-04-03T11:39:28;1.53;;;0.93;;
18716;SDS011;9487;50.892;6.906;2023-04-03T11:42:12;1.83;;;1.00;;
18716;SDS011;9487;50.892;6.906;2023-04-03T11:44:41;2.23;;;1.17;;
18716;SDS011;9487;50.892;6.906;2023-04-03T11:47:10;2.23;;;1.10;;
18716;SDS011;9487;50.892;6.906;2023-04-03T11:49:54;2.27;;;1.37;;
18716;SDS011;9487;50.892;6.906;2023-04-03T11:55:42;2.50;;;1.10;;
18716;SDS011;9487;50.892;6.906;2023-04-03T11:58:13;1.80;;;1.10;;
18716;SDS011;9487;50.892;6.906;2023-04-03T12:00:49;1.60;;;1.07;;
18716;SDS011;9487;50.892;6.906;2023-04-03T12:03:32;3.33;;;1.27;;
18716;SDS011;9487;50.892;6.906;2023-04-03T12:09:24;1.90;;;0.97;;
18716;SDS011;9487;50.892;6.906;2023-04-03T12:11:53;1.10;;;0.80;;
18716;SDS011;9487;50.892;6.906;2023-04-03T12:14:22;1.77;;;1.07;;
18716;SDS011;9487;50.892;6.906;2023-04-03T12:16:51;1.60;;;1.10;;
18716;SDS011;9487;50.892;6.906;2023-04-03T12:19:36;2.23;;;1.30;;
18716;SDS011;9487;50.892;6.906;2023-04-03T12:24:46;2.17;;;1.03;;
18716;SDS011;9487;50.892;6.906;2023-04-03T12:30:05;2.50;;;1.00;;
18716;SDS011;9487;50.892;6.906;2023-04-03T12:32:44;2.80;;;1.00;;
18716;SDS011;9487;50.892;6.906;2023-04-03T12:35:21;1.70;;;1.03;;
18716;SDS011;9487;50.892;6.906;2023-04-03T12:38:13;2.13;;;1.07;;
18716;SDS011;9487;50.892;6.906;2023-04-03T12:40:50;2.63;;;1.13;;
18716;SDS011;9487;50.892;6.906;2023-04-03T12:43:25;3.73;;;1.20;;
18716;SDS011;9487;50.892;6.906;2023-04-03T12:46:03;2.50;;;1.20;;
18716;SDS011;9487;50.892;6.906;2023-04-03T12:48:37;1.87;;;1.07;;
18716;SDS011;9487;50.892;6.906;2023-04-03T12:51:14;1.83;;;1.07;;
18716;SDS011;9487;50.892;6.906;2023-04-03T12:53:44;2.20;;;1.20;;
18716;SDS011;9487;50.892;6.906;2023-04-03T12:56:19;1.57;;;0.90;;
18716;SDS011;9487;50.892;6.906;2023-04-03T12:58:51;2.90;;;1.23;;
18716;SDS011;9487;50.892;6.906;2023-04-03T13:01:20;1.77;;;1.07;;
18716;SDS011;9487;50.892;6.906;2023-04-03T13:03:49;1.80;;;1.07;;
18716;SDS011;9487;50.892;6.906;2023-04-03T13:06:21;1.60;;;0.80;;
18716;SDS011;9487;50.892;6.906;2023-04-03T13:08:50;1.73;;;1.10;;
18716;SDS011;9487;50.892;6.906;2023-04-03T13:11:18;1.80;;;1.17;;
18716;SDS011;9487;50.892;6.906;2023-04-03T13:13:54;2.77;;;1.10;;
18716;SDS011;9487;50.892;6.906;2023-04-03T13:16:21;1.87;;;1.27;;
18716;SDS011;9487;50.892;6.906;2023-04-03T13:18:50;1.77;;;1.20;;
18716;SDS011;9487;50.892;6.906;2023-04-03T13:21:18;2.13;;;0.90;;
18716;SDS011;9487;50.892;6.906;2023-04-03T13:23:50;1.90;;;0.90;;
18716;SDS011;9487;50.892;6.906;2023-04-03T13:26:19;1.50;;;0.90;;
18716;SDS011;9487;50.892;6.906;2023-04-03T13:28:49;2.63;;;1.10;;
18716;SDS011;9487;50.892;6.906;2023-04-03T13:31:21;1.63;;;1.00;;
18716;SDS011;9487;50.892;6.906;2023-04-03T13:33:52;2.30;;;0.87;;
18716;SDS011;9487;50.892;6.906;2023-04-03T13:36:24;1.63;;;1.10;;
18716;SDS011;9487;50.892;6.906;2023-04-03T13:39:00;2.80;;;1.00;;
18716;SDS011;9487;50.892;6.906;2023-04-03T13:41:30;3.13;;;1.63;;
18716;SDS011;9487;50.892;6.906;2023-04-03T13:46:41;2.83;;;1.10;;
18716;SDS011;9487;50.892;6.906;2023-04-03T13:49:17;1.63;;;1.10;;
18716;SDS011;9487;50.892;6.906;2023-04-03T13:51:47;1.47;;;0.90;;
18716;SDS011;9487;50.892;6.906;2023-04-03T13:54:18;1.80;;;1.03;;
18716;SDS011;9487;50.892;6.906;2023-04-03T13:56:52;1.20;;;1.10;;
18716;SDS011;9487;50.892;6.906;2023-04-03T13:59:21;3.37;;;1.03;;
18716;SDS011;9487;50.892;6.906;2023-04-03T14:01:51;2.17;;;1.50;;
18716;SDS011;9487;50.892;6.906;2023-04-03T14:04:21;1.57;;;1.17;;
18716;SDS011;9487;50.892;6.906;2023-04-03T14:06:52;1.73;;;1.00;;
18716;SDS011;9487;50.892;6.906;2023-04-03T14:09:19;2.47;;;1.40;;
18716;SDS011;9487;50.892;6.906;2023-04-03T14:11:48;1.70;;;1.23;;
18716;SDS011;9487;50.892;6.906;2023-04-03T14:14:18;1.50;;;1.00;;
18716;SDS011;9487;50.892;6.906;2023-04-03T14:16:50;1.87;;;1.20;;
18716;SDS011;9487;50.892;6.906;2023-04-03T14:19:20;4.53;;;1.50;;
18716;SDS011;9487;50.892;6.906;2023-04-03T14:21:49;1.97;;;1.30;;
18716;SDS011;9487;50.892;6.906;2023-04-03T14:24:18;2.97;;;1.33;;
18716;SDS011;9487;50.892;6.906;2023-04-03T14:26:46;2.40;;;1.20;;
18716;SDS011;9487;50.892;6.906;2023-04-03T14:29:14;1.83;;;1.10;;
18716;SDS011;9487;50.892;6.906;2023-04-03T14:31:43;2.33;;;1.20;;
18716;SDS011;9487;50.892;6.906;2023-04-03T14:34:11;1.87;;;1.23;;
18716;SDS011;9487;50.892;6.906;2023-04-03T14:36:39;2.33;;;1.10;;
18716;SDS011;9487;50.892;6.906;2023-04-03T14:39:10;3.20;;;1.50;;
18716;SDS011;9487;50.892;6.906;2023-04-03T14:41:43;2.93;;;0.90;;
18716;SDS011;9487;50.892;6.906;2023-04-03T14:44:10;1.97;;;1.13;;
18716;SDS011;9487;50.892;6.906;2023-04-03T14:46:38;1.77;;;1.30;;
18716;SDS011;9487;50.892;6.906;2023-04-03T14:49:09;5.40;;;1.60;;
18716;SDS011;9487;50.892;6.906;2023-04-03T14:51:40;1.60;;;1.20;;
18716;SDS011;9487;50.892;6.906;2023-04-03T14:54:09;2.60;;;1.53;;
18716;SDS011;9487;50.892;6.906;2023-04-03T14:56:39;3.93;;;1.83;;
18716;SDS011;9487;50.892;6.906;2023-04-03T14:59:09;2.57;;;1.67;;
18716;SDS011;9487;50.892;6.906;2023-04-03T15:01:39;1.57;;;1.10;;
18716;SDS011;9487;50.892;6.906;2023-04-03T15:04:09;3.07;;;1.60;;
18716;SDS011;9487;50.892;6.906;2023-04-03T15:06:37;2.10;;;1.20;;
18716;SDS011;9487;50.892;6.906;2023-04-03T15:09:04;3.10;;;1.30;;
18716;SDS011;9487;50.892;6.906;2023-04-03T15:11:31;2.10;;;1.00;;
18716;SDS011;9487;50.892;6.906;2023-04-03T15:13:58;1.67;;;1.20;;
18716;SDS011;9487;50.892;6.906;2023-04-03T15:16:26;2.33;;;1.30;;
18716;SDS011;9487;50.892;6.906;2023-04-03T15:18:53;2.47;;;1.27;;
18716;SDS011;9487;50.892;6.906;2023-04-03T15:21:20;2.03;;;1.20;;
18716;SDS011;9487;50.892;6.906;2023-04-03T15:23:47;3.00;;;1.37;;
18716;SDS011;9487;50.892;6.906;2023-04-03T15:26:14;2.43;;;1.40;;
18716;SDS011;9487;50.892;6.906;2023-04-03T15:28:41;2.00;;;1.10;;
18716;SDS011;9487;50.892;6.906;2023-04-03T15:31:09;1.53;;;1.10;;
18716;SDS011;9487;50.892;6.906;2023-04-03T15:33:37;3.00;;;1.40;;